< < Back
Terminal Aerodrome Forecast


Current Version              Previous Versions:   1  2  3  4  5  6  7  8  9  

Terminal Aerodrome Forecast

765
FTUS44 KBMX 232300
TAFMGM
TAF
KMGM 232330Z 2400/2424 VRB03KT P6SM SKC
     FM241600 18006KT P6SM SKC=

Latest METAR

684
SAUS80 KWBC 240400
MTRMGM
METAR KMGM 240353Z AUTO 00000KT 10SM CLR 18/12 A2994 RMK AO2 SLP138
T01780117


USA.gov is the U.S. government's official web portal to all federal, state and local government web resources and services.